Time;durP1;ratioP1;P1;durP2;ratioP2;P2;SDS_P1;SDS_P2;PMS_P1;PMS_P2;Temp;Humidity;BMP_temperature;BMP_pressure;BME280_temperature;BME280_humidity;BME280_pressure;Samples;Min_cycle;Max_cycle;Signal;HPM_P1;HPM_P2
2022/05/24 00:00:24;;;;;;;22.20;12.10;;;;;;;8.74;62.52;98525.40;105990;1274;97987;-68
2022/05/24 00:03:10;;;;;;;21.70;11.70;;;;;;;8.72;62.89;98520.97;105998;1276;108226;-67
2022/05/24 00:05:41;;;;;;;20.20;10.50;;;;;;;8.71;62.76;98519.26;105966;1277;95405;-68
2022/05/24 00:08:09;;;;;;;21.60;9.40;;;;;;;8.70;63.30;98517.09;105979;1274;95193;-67
2022/05/24 00:10:40;;;;;;;21.80;10.60;;;;;;;8.68;63.14;98508.00;105986;1274;112619;-67
2022/05/24 00:13:08;;;;;;;20.90;9.90;;;;;;;8.65;63.01;98507.02;105879;1274;98019;-65
2022/05/24 00:15:43;;;;;;;20.10;9.90;;;;;;;8.58;63.22;98508.42;105977;1274;108331;-66
2022/05/24 00:18:33;;;;;;;20.50;9.60;;;;;;;8.49;63.53;98503.01;105958;1277;95220;-66
2022/05/24 00:21:06;;;;;;;19.40;9.70;;;;;;;8.47;63.51;98500.50;105968;1276;97876;-66
2022/05/24 00:23:38;;;;;;;22.40;10.10;;;;;;;8.48;63.61;98498.81;105970;1277;111994;-66
2022/05/24 00:26:20;;;;;;;21.80;9.70;;;;;;;8.46;63.42;98500.37;105962;1276;95180;-66
2022/05/24 00:28:48;;;;;;;21.00;10.10;;;;;;;8.39;63.51;98503.73;105977;1276;107821;-66
2022/05/24 00:31:17;;;;;;;20.10;9.60;;;;;;;8.33;63.33;98506.97;105952;1276;97839;-67
2022/05/24 00:33:48;;;;;;;20.40;10.40;;;;;;;8.27;63.56;98505.83;106043;1276;97915;-66
2022/05/24 00:36:17;;;;;;;21.00;10.30;;;;;;;8.22;63.46;98506.55;106074;1276;111899;-66
2022/05/24 00:38:48;;;;;;;19.70;9.60;;;;;;;8.16;63.69;98501.80;106061;1276;97879;-65
2022/05/24 00:41:35;;;;;;;18.90;9.00;;;;;;;8.14;63.54;98502.30;105972;1276;108375;-65
2022/05/24 00:44:35;;;;;;;21.80;10.50;;;;;;;8.13;63.60;98501.51;105993;1276;97938;-65
2022/05/24 00:47:20;;;;;;;20.10;10.10;;;;;;;8.10;63.99;98498.54;105901;1274;98065;-66
2022/05/24 00:49:58;;;;;;;22.80;10.90;;;;;;;8.10;64.07;98503.33;105910;1274;111518;-65
2022/05/24 00:52:32;;;;;;;20.50;10.50;;;;;;;8.09;63.91;98506.25;105940;1277;97906;-67
2022/05/24 00:55:15;;;;;;;21.60;11.00;;;;;;;8.08;64.05;98505.23;105961;1277;108359;-63
2022/05/24 00:58:12;;;;;;;25.10;12.60;;;;;;;8.10;64.03;98498.23;105870;1278;98033;-68
2022/05/24 01:00:42;;;;;;;24.80;12.50;;;;;;;8.13;64.02;98499.08;105844;1276;98596;-66
2022/05/24 01:03:12;;;;;;;23.90;13.00;;;;;;;8.12;63.96;98492.92;105882;1276;111417;-66
2022/05/24 01:05:43;;;;;;;23.70;12.20;;;;;;;8.11;64.19;98491.44;106515;1276;97896;-66
2022/05/24 01:08:12;;;;;;;26.60;13.10;;;;;;;8.10;64.15;98491.52;105949;1276;108435;-66
2022/05/24 01:10:50;;;;;;;24.90;13.50;;;;;;;8.08;63.99;98489.85;105959;1276;96995;-64
2022/05/24 01:13:29;;;;;;;27.10;13.00;;;;;;;8.07;63.78;98487.48;106062;1274;97873;-65
2022/05/24 01:16:00;;;;;;;27.80;13.30;;;;;;;8.03;64.35;98483.13;105976;1273;111474;-64
2022/05/24 01:18:29;;;;;;;24.50;11.80;;;;;;;8.01;64.17;98477.48;106004;1274;97900;-63
2022/05/24 01:21:13;;;;;;;25.40;11.90;;;;;;;7.96;64.16;98478.73;105959;1274;108220;-65
2022/05/24 01:23:59;;;;;;;24.30;12.00;;;;;;;7.84;64.14;98479.89;105982;1274;95300;-66
2022/05/24 01:26:49;;;;;;;25.50;10.70;;;;;;;7.80;64.21;98476.87;106059;1274;95239;-66
2022/05/24 01:29:20;;;;;;;23.70;11.80;;;;;;;7.79;64.43;98471.59;105986;1274;111403;-67
2022/05/24 01:37:27;;;;;;;23.10;11.60;;;;;;;7.77;64.55;98476.34;105990;1274;95282;-70
2022/05/24 01:39:58;;;;;;;22.30;11.20;;;;;;;7.77;64.48;98476.89;105984;1274;98047;-68
2022/05/24 01:42:27;;;;;;;21.10;10.50;;;;;;;7.77;64.49;98470.83;105973;1274;111147;-67
2022/05/24 01:45:04;;;;;;;21.00;10.40;;;;;;;7.79;64.55;98469.50;105958;1274;97863;-66
2022/05/24 01:47:35;;;;;;;19.70;9.90;;;;;;;7.81;64.61;98473.25;105957;1274;107812;-65
2022/05/24 01:50:09;;;;;;;20.50;10.10;;;;;;;7.83;64.80;98467.63;106001;1274;97968;-66
2022/05/24 01:52:44;;;;;;;;;;;;;;;7.81;64.81;98472.67;106159;1276;97871;-65
2022/05/24 01:55:26;;;;;;;20.90;9.90;;;;;;;7.78;65.08;98471.52;105946;1274;111857;-66
2022/05/24 01:57:59;;;;;;;23.60;11.00;;;;;;;7.78;64.87;98469.75;106046;1274;99287;-66
2022/05/24 02:00:28;;;;;;;19.90;9.60;;;;;;;7.66;64.60;98461.41;105937;1276;108850;-69
2022/05/24 02:02:56;;;;;;;21.40;10.50;;;;;;;7.51;64.70;98461.92;106120;1274;96303;-65
2022/05/24 02:05:42;;;;;;;20.80;9.90;;;;;;;7.40;65.03;98461.05;106020;1274;97928;-68
2022/05/24 02:08:12;;;;;;;21.80;10.00;;;;;;;7.33;65.11;98462.23;105938;1275;111017;-65
2022/05/24 02:10:53;;;;;;;19.50;9.50;;;;;;;7.30;65.25;98459.48;106093;1274;97999;-66
2022/05/24 02:13:30;;;;;;;22.60;10.70;;;;;;;7.30;65.24;98460.70;106063;1274;108206;-65
2022/05/24 02:16:04;;;;;;;22.10;10.60;;;;;;;7.29;65.05;98463.73;106004;1274;97899;-64
2022/05/24 02:18:33;;;;;;;20.70;10.70;;;;;;;7.29;65.17;98461.50;106044;1274;95281;-65
2022/05/24 02:21:02;;;;;;;20.90;9.90;;;;;;;7.28;65.30;98460.34;106058;1274;112097;-66
2022/05/24 02:23:42;;;;;;;22.60;11.60;;;;;;;7.25;65.18;98462.44;106042;1274;95268;-65
2022/05/24 02:26:12;;;;;;;21.40;10.90;;;;;;;7.23;65.29;98458.69;105808;1275;107773;-65
2022/05/24 02:28:43;;;;;;;23.80;11.20;;;;;;;7.22;65.23;98462.45;105962;1274;98156;-65
2022/05/24 02:31:19;;;;;;;21.30;10.10;;;;;;;7.23;65.17;98464.57;105947;1274;97975;-65
2022/05/24 02:33:49;;;;;;;21.30;10.50;;;;;;;7.25;65.41;98461.56;105984;1274;112033;-65
2022/05/24 02:36:18;;;;;;;22.80;11.40;;;;;;;7.27;65.40;98461.05;105954;1274;96431;-65
2022/05/24 02:38:47;;;;;;;20.90;10.00;;;;;;;7.27;65.48;98461.45;106036;1276;108246;-66
2022/05/24 02:41:36;;;;;;;22.40;10.90;;;;;;;7.23;65.34;98459.42;105995;1275;97899;-66
2022/05/24 02:44:09;;;;;;;22.10;10.80;;;;;;;7.23;65.59;98459.40;106036;1274;95322;-67
2022/05/24 02:46:44;;;;;;;20.30;10.20;;;;;;;7.25;65.52;98462.77;105992;1274;112007;-66
2022/05/24 02:49:12;;;;;;;21.20;10.10;;;;;;;7.29;65.68;98461.10;106017;1274;96431;-65
2022/05/24 02:51:44;;;;;;;24.90;11.60;;;;;;;7.32;65.73;98456.89;105940;1274;109240;-66
2022/05/24 02:54:12;;;;;;;24.10;11.60;;;;;;;7.34;65.60;98455.86;105933;1274;98602;-65
2022/05/24 02:56:43;;;;;;;23.10;11.60;;;;;;;7.31;65.84;98455.70;105961;1274;97992;-65
2022/05/24 02:59:12;;;;;;;22.50;11.10;;;;;;;7.24;65.73;98450.91;105942;1274;112160;-66
2022/05/24 03:01:40;;;;;;;21.90;11.40;;;;;;;7.17;65.52;98447.14;105939;1274;98073;-65
2022/05/24 03:04:09;;;;;;;22.10;11.80;;;;;;;7.18;65.93;98438.64;105958;1274;108323;-65
2022/05/24 03:09:33;;;;;;;20.30;10.40;;;;;;;7.27;66.02;98433.57;105924;1274;97917;-67
2022/05/24 03:14:57;;;;;;;24.70;12.90;;;;;;;7.32;65.99;98432.19;106090;1274;97278;-66
2022/05/24 03:17:27;;;;;;;23.00;11.10;;;;;;;7.28;65.86;98434.70;105967;1274;107653;-66
2022/05/24 03:19:58;;;;;;;21.80;11.10;;;;;;;7.26;65.90;98434.34;105938;1274;96396;-70
2022/05/24 03:22:26;;;;;;;23.70;11.60;;;;;;;7.29;66.16;98439.59;106106;1274;98061;-69
2022/05/24 03:24:54;;;;;;;22.80;11.50;;;;;;;7.30;65.98;98443.23;105998;1274;111540;-66
2022/05/24 03:27:24;;;;;;;23.90;11.40;;;;;;;7.26;66.11;98441.55;105969;1274;97804;-65
2022/05/24 03:29:54;;;;;;;22.60;11.60;;;;;;;7.30;66.14;98443.59;105907;1274;108410;-67
2022/05/24 03:32:24;;;;;;;22.10;10.60;;;;;;;7.36;66.19;98445.09;105889;1275;95293;-66
2022/05/24 03:34:53;;;;;;;22.80;11.80;;;;;;;7.42;66.48;98445.61;105977;1274;96993;-65
2022/05/24 03:37:22;;;;;;;22.90;11.60;;;;;;;7.46;66.44;98448.84;105915;1274;111655;-66
2022/05/24 03:39:50;;;;;;;21.40;11.20;;;;;;;7.51;66.36;98451.15;105938;1274;97942;-66
2022/05/24 03:42:26;;;;;;;21.50;11.10;;;;;;;7.55;66.30;98449.23;105898;1276;107602;-66
2022/05/24 03:44:55;;;;;;;23.80;11.60;;;;;;;7.58;66.40;98442.15;105461;1276;663366;-65
2022/05/24 03:47:23;;;;;;;22.40;11.50;;;;;;;7.64;66.19;98444.98;105909;1274;97898;-66
2022/05/24 03:49:51;;;;;;;27.20;13.50;;;;;;;7.67;66.30;98451.13;105945;1275;111578;-68
2022/05/24 03:52:23;;;;;;;25.80;12.50;;;;;;;7.70;66.21;98448.23;105961;1274;97891;-66
2022/05/24 03:54:51;;;;;;;21.90;12.20;;;;;;;7.73;66.13;98453.30;105951;1274;108368;-66
2022/05/24 04:00:11;;;;;;;22.10;12.00;;;;;;;7.79;66.40;98457.33;105963;1276;97038;-66
2022/05/24 04:02:39;;;;;;;23.60;11.30;;;;;;;7.85;66.63;98454.09;105961;1275;110982;-65
2022/05/24 04:05:09;;;;;;;24.70;12.20;;;;;;;7.90;66.50;98451.39;105976;1274;97895;-67
2022/05/24 04:07:39;;;;;;;22.10;12.10;;;;;;;7.97;66.74;98447.74;105974;1274;107495;-64
2022/05/24 04:10:14;;;;;;;23.30;12.00;;;;;;;8.03;66.48;98445.86;105916;1275;96327;-66
2022/05/24 04:12:45;;;;;;;24.20;12.60;;;;;;;8.10;66.66;98444.02;106011;1272;97782;-66
2022/05/24 04:15:15;;;;;;;23.70;12.90;;;;;;;8.14;66.77;98446.84;105951;1274;111419;-67
2022/05/24 04:17:43;;;;;;;24.30;12.70;;;;;;;8.21;66.83;98441.08;105845;1275;97748;-68
2022/05/24 04:20:13;;;;;;;24.40;11.70;;;;;;;8.27;66.78;98440.65;105986;1274;108401;-65
2022/05/24 04:22:42;;;;;;;22.60;12.40;;;;;;;8.34;67.13;98442.95;105871;1274;96208;-66
2022/05/24 04:25:15;;;;;;;24.80;13.00;;;;;;;8.41;66.96;98444.91;105915;1274;97888;-65
2022/05/24 04:27:43;;;;;;;23.30;12.70;;;;;;;8.49;67.04;98442.77;105860;1274;111972;-69
2022/05/24 04:30:14;;;;;;;23.50;12.80;;;;;;;8.57;67.10;98437.08;105918;1276;98083;-66
2022/05/24 04:32:42;;;;;;;22.00;11.70;;;;;;;8.64;66.98;98434.63;105652;1276;107799;-66
2022/05/24 04:35:12;;;;;;;24.50;13.30;;;;;;;8.73;67.20;98434.31;105846;1274;97986;-65
2022/05/24 04:37:40;;;;;;;27.50;13.10;;;;;;;8.83;67.33;98431.07;106024;1276;95315;-65
2022/05/24 04:40:10;;;;;;;23.60;12.30;;;;;;;8.93;67.27;98435.30;105956;1274;111925;-66
2022/05/24 04:42:40;;;;;;;21.30;11.00;;;;;;;9.03;67.18;98441.24;105990;1274;97819;-66
2022/05/24 04:45:14;;;;;;;22.50;11.90;;;;;;;9.12;67.14;98444.98;105912;1274;108330;-68
2022/05/24 04:47:42;;;;;;;;;;;;;;;9.22;67.41;98444.91;106094;1274;97967;-65
2022/05/24 04:50:12;;;;;;;21.50;10.80;;;;;;;9.32;67.41;98440.62;106092;1274;97960;-66
2022/05/24 04:52:43;;;;;;;22.80;11.40;;;;;;;9.43;67.23;98439.42;106011;1274;111949;-66
2022/05/24 04:55:14;;;;;;;20.90;11.80;;;;;;;9.54;67.31;98437.71;106034;1274;97901;-65
2022/05/24 04:57:44;;;;;;;21.90;12.10;;;;;;;9.63;67.29;98436.29;106014;1274;108779;-66
2022/05/24 05:00:16;;;;;;;20.50;11.80;;;;;;;9.73;67.21;98438.66;106004;1274;96292;-66
2022/05/24 05:02:44;;;;;;;17.40;9.30;;;;;;;9.85;67.36;98438.63;105929;1276;97897;-66
2022/05/24 05:05:15;;;;;;;17.90;9.10;;;;;;;9.97;67.27;98438.56;105980;1278;112168;-64
2022/05/24 05:07:48;;;;;;;17.70;7.70;;;;;;;10.09;67.26;98437.59;105942;1276;95290;-66
2022/05/24 05:10:16;;;;;;;15.60;7.30;;;;;;;10.21;67.20;98435.05;105938;1276;108347;-65
2022/05/24 05:12:46;;;;;;;15.40;6.90;;;;;;;10.33;67.17;98431.23;106103;1276;97944;-65
2022/05/24 05:15:15;;;;;;;14.10;6.50;;;;;;;10.46;67.14;98433.22;106005;1275;97955;-65
2022/05/24 05:17:45;;;;;;;16.10;6.60;;;;;;;10.56;67.04;98433.11;105986;1274;110285;-65
2022/05/24 05:20:15;;;;;;;11.90;6.00;;;;;;;10.66;67.07;98438.52;106005;1274;97874;-65
2022/05/24 05:22:43;;;;;;;12.80;5.90;;;;;;;10.78;67.07;98441.63;105911;1274;108343;-65
2022/05/24 05:25:11;;;;;;;14.80;6.50;;;;;;;10.91;67.04;98438.52;105936;1274;97913;-65
2022/05/24 05:27:41;;;;;;;13.80;5.70;;;;;;;11.03;66.97;98434.89;106024;1275;97029;-65
2022/05/24 05:33:03;;;;;;;10.90;5.30;;;;;;;11.24;67.05;98432.23;106080;1276;98588;-66
2022/05/24 05:35:31;;;;;;;14.30;6.10;;;;;;;11.37;66.85;98437.88;105935;1276;108371;-65
2022/05/24 05:38:01;;;;;;;10.90;5.80;;;;;;;11.46;66.64;98441.34;106037;1274;97969;-64
2022/05/24 05:40:29;;;;;;;11.90;5.90;;;;;;;11.55;66.76;98445.56;106022;1274;98004;-70
2022/05/24 05:42:59;;;;;;;12.60;6.00;;;;;;;11.64;66.71;98443.71;106012;1274;111072;-68
2022/05/24 05:45:32;;;;;;;14.50;5.60;;;;;;;11.72;66.76;98442.13;106025;1274;97855;-66
2022/05/24 05:48:02;;;;;;;12.20;5.20;;;;;;;11.82;66.63;98437.55;106028;1274;107811;-64
2022/05/24 05:50:30;;;;;;;10.40;4.90;;;;;;;11.93;66.45;98433.95;106037;1274;98436;-65
2022/05/24 05:53:01;;;;;;;9.00;4.20;;;;;;;12.03;66.39;98428.61;106110;1274;97955;-64
2022/05/24 05:55:31;;;;;;;11.20;4.70;;;;;;;12.12;66.22;98427.35;106051;1274;112001;-65
2022/05/24 05:58:01;;;;;;;9.30;4.00;;;;;;;12.20;66.20;98429.62;105983;1274;95233;-65
2022/05/24 06:00:29;;;;;;;8.10;3.80;;;;;;;12.30;66.23;98433.89;105932;1276;108326;-67
2022/05/24 06:02:58;;;;;;;8.90;4.30;;;;;;;12.42;66.18;98431.37;105862;1276;95259;-65
2022/05/24 06:05:28;;;;;;;9.00;4.20;;;;;;;12.54;66.18;98424.44;105872;1276;97922;-65
2022/05/24 06:08:01;;;;;;;7.20;3.70;;;;;;;12.64;65.95;98426.55;105956;1276;111962;-65
2022/05/24 06:10:34;;;;;;;8.80;4.00;;;;;;;12.78;65.93;98429.89;106014;1274;97881;-64
2022/05/24 06:13:07;;;;;;;6.20;3.90;;;;;;;12.92;65.91;98433.45;106024;1274;107801;-66
2022/05/24 06:15:37;;;;;;;7.30;3.90;;;;;;;13.02;65.73;98425.23;105935;1275;97830;-65
2022/05/24 06:18:08;;;;;;;7.10;3.20;;;;;;;13.12;65.58;98423.23;106017;1275;97886;-65
2022/05/24 06:20:36;;;;;;;5.00;3.30;;;;;;;13.20;65.50;98419.09;106039;1275;111474;-65
2022/05/24 06:23:07;;;;;;;7.50;3.50;;;;;;;13.29;65.39;98419.20;105983;1276;97969;-66
2022/05/24 06:25:36;;;;;;;9.20;3.90;;;;;;;13.38;65.37;98420.25;105910;1274;108371;-65
2022/05/24 06:28:04;;;;;;;7.90;3.70;;;;;;;13.47;65.33;98423.87;105964;1276;97875;-64
2022/05/24 06:30:36;;;;;;;7.30;4.10;;;;;;;13.59;65.30;98424.41;106077;1274;97959;-64
2022/05/24 06:33:07;;;;;;;6.60;3.70;;;;;;;13.70;65.29;98424.42;105985;1276;112047;-65
2022/05/24 06:35:42;;;;;;;6.00;3.50;;;;;;;13.79;65.24;98427.79;105947;1275;97978;-65
2022/05/24 06:38:13;;;;;;;5.20;3.30;;;;;;;13.86;65.12;98428.73;105975;1274;107754;-66
2022/05/24 06:40:45;;;;;;;5.70;3.10;;;;;;;13.98;64.96;98428.34;105970;1274;97975;-64
2022/05/24 06:43:15;;;;;;;6.50;3.30;;;;;;;14.12;64.88;98427.86;106003;1274;97995;-65
2022/05/24 06:45:43;;;;;;;7.20;3.50;;;;;;;14.25;64.75;98424.39;105971;1274;111969;-67
2022/05/24 06:48:13;;;;;;;6.30;3.40;;;;;;;14.40;64.78;98416.52;105932;1274;97640;-64
2022/05/24 06:50:42;;;;;;;6.80;3.20;;;;;;;14.56;64.55;98411.11;105914;1274;108355;-65
2022/05/24 06:53:11;;;;;;;7.10;3.40;;;;;;;14.69;64.38;98412.45;106031;1274;98020;-64
2022/05/24 06:55:39;;;;;;;6.90;3.20;;;;;;;14.84;63.95;98410.98;106028;1276;95377;-64
2022/05/24 06:58:09;;;;;;;5.00;2.80;;;;;;;15.54;63.29;98406.34;105969;1276;111991;-65
2022/05/24 07:03:30;;;;;;;2.40;2.20;;;;;;;19.88;59.80;98396.48;105987;1274;106926;-65
2022/05/24 07:06:00;;;;;;;3.10;2.50;;;;;;;21.64;58.56;98394.61;105919;1274;97887;-66
2022/05/24 07:08:28;;;;;;;2.60;2.10;;;;;;;23.03;58.18;98392.40;105992;1274;97766;-65
2022/05/24 07:10:56;;;;;;;3.70;2.20;;;;;;;24.10;57.59;98390.63;105978;1276;111000;-66
2022/05/24 07:13:24;;;;;;;4.80;2.20;;;;;;;24.91;57.61;98389.95;105890;1276;96259;-64
2022/05/24 07:15:53;;;;;;;3.40;1.90;;;;;;;25.76;56.87;98384.09;105944;1276;108353;-66
2022/05/24 07:18:21;;;;;;;2.20;1.70;;;;;;;26.60;56.65;98389.79;105942;1276;97926;-66
2022/05/24 07:20:49;;;;;;;3.00;1.90;;;;;;;27.18;55.54;98393.92;105947;1276;97864;-65
2022/05/24 07:23:20;;;;;;;3.90;2.10;;;;;;;27.68;55.06;98397.41;105964;1274;112010;-67
2022/05/24 07:25:48;;;;;;;2.60;2.00;;;;;;;28.16;54.55;98394.48;106013;1276;98439;-66
2022/05/24 07:28:26;;;;;;;2.20;1.90;;;;;;;28.76;54.19;98396.79;106027;1274;106557;-65
2022/05/24 07:30:54;;;;;;;2.30;2.10;;;;;;;29.57;55.37;98394.89;105956;1276;97881;-67
2022/05/24 07:33:24;;;;;;;4.40;2.20;;;;;;;30.01;53.52;98390.23;106047;1274;97963;-66
2022/05/24 07:35:54;;;;;;;3.90;1.90;;;;;;;29.98;51.97;98390.77;105975;1274;111932;-66
2022/05/24 07:38:22;;;;;;;3.90;2.10;;;;;;;30.14;52.90;98397.56;105973;1274;96357;-65
2022/05/24 07:46:35;;;;;;;6.00;2.40;;;;;;;32.59;51.14;98391.80;106003;1275;97867;-67
2022/05/24 07:49:05;;;;;;;6.60;2.30;;;;;;;32.47;49.68;98389.30;106010;1274;111942;-67
2022/05/24 07:51:34;;;;;;;5.10;2.00;;;;;;;32.28;50.52;98388.15;106073;1274;95710;-69
2022/05/24 07:54:04;;;;;;;4.20;2.40;;;;;;;32.49;49.55;98391.79;106006;1274;108429;-66
2022/05/24 07:56:35;;;;;;;2.70;2.00;;;;;;;32.53;48.55;98388.33;106099;1274;98465;-67
2022/05/24 07:59:03;;;;;;;4.20;2.50;;;;;;;32.20;48.13;98394.12;106124;1274;97966;-67
2022/05/24 08:01:33;;;;;;;2.30;2.00;;;;;;;32.36;49.16;98393.39;105963;1274;111701;-65
2022/05/24 08:04:05;;;;;;;7.50;2.30;;;;;;;32.89;48.60;98386.39;105946;1274;98497;-67
2022/05/24 08:06:33;;;;;;;3.70;2.30;;;;;;;33.47;49.22;98378.24;106020;1274;107611;-67
2022/05/24 08:09:04;;;;;;;3.60;2.10;;;;;;;33.64;47.03;98379.25;106122;1274;98055;-66
2022/05/24 08:11:34;;;;;;;4.30;2.40;;;;;;;33.63;46.62;98375.71;106134;1274;97965;-67
2022/05/24 08:14:06;;;;;;;5.40;2.40;;;;;;;33.87;46.64;98380.78;106086;1276;111464;-69
2022/05/24 08:16:34;;;;;;;;;;;;;;;34.41;46.80;98380.79;105910;1274;96852;-65
2022/05/24 08:19:05;;;;;;;2.40;2.20;;;;;;;34.44;44.98;98380.89;105940;1276;108230;-68
2022/05/24 08:21:38;;;;;;;4.20;2.30;;;;;;;33.83;44.28;98382.28;105903;1276;95329;-66
2022/05/24 08:24:09;;;;;;;6.40;2.00;;;;;;;33.97;45.10;98379.09;106024;1275;97885;-68
2022/05/24 08:26:37;;;;;;;4.00;2.10;;;;;;;34.00;43.50;98381.88;105960;1274;111401;-68
2022/05/24 08:29:07;;;;;;;4.50;2.40;;;;;;;33.57;43.46;98377.61;106031;1276;98542;-67
2022/05/24 08:31:40;;;;;;;2.00;1.80;;;;;;;33.53;42.52;98373.94;106015;1275;107210;-67
2022/05/24 08:34:12;;;;;;;5.30;1.80;;;;;;;33.44;42.36;98379.46;106162;1274;95444;-70
2022/05/24 08:36:42;;;;;;;3.90;1.60;;;;;;;33.27;42.19;98379.48;106134;1274;96892;-66
2022/05/24 08:39:13;;;;;;;5.30;1.80;;;;;;;33.45;42.42;98377.15;106147;1274;111421;-71
2022/05/24 08:41:47;;;;;;;5.10;1.50;;;;;;;33.80;41.90;98379.58;106058;1276;97578;-68
2022/05/24 08:50:11;;;;;;;4.60;1.70;;;;;;;32.74;39.92;98391.70;105923;1275;98591;-67
2022/05/24 08:52:52;;;;;;;2.90;1.50;;;;;;;32.74;39.43;98390.55;105934;1274;112135;-66
2022/05/24 08:55:20;;;;;;;4.00;2.00;;;;;;;32.83;39.67;98388.26;105947;1275;98363;-68
2022/05/24 08:57:57;;;;;;;8.70;2.40;;;;;;;32.99;39.73;98386.23;105890;1275;107792;-68
2022/05/24 09:00:39;;;;;;;6.10;2.00;;;;;;;33.08;38.81;98385.17;105995;1275;96191;-67
2022/05/24 09:03:08;;;;;;;3.80;1.90;;;;;;;33.14;38.30;98385.56;105986;1274;96381;-66
2022/05/24 09:05:57;;;;;;;6.90;2.60;;;;;;;32.82;38.13;98380.48;105944;1275;112013;-66
2022/05/24 09:08:42;;;;;;;5.00;2.20;;;;;;;32.24;36.98;98377.95;106143;1274;96595;-66
2022/05/24 09:11:35;;;;;;;3.60;1.90;;;;;;;31.66;37.59;98382.88;106064;1275;107633;-65
2022/05/24 09:14:32;;;;;;;2.30;1.90;;;;;;;31.60;37.20;98384.05;105957;1274;95271;-66
2022/05/24 09:17:12;;;;;;;3.90;2.10;;;;;;;31.29;37.06;98381.63;105936;1274;97960;-66
2022/05/24 09:19:45;;;;;;;4.90;2.00;;;;;;;31.03;36.93;98377.67;105916;1274;111942;-65
2022/05/24 09:22:21;;;;;;;2.70;2.10;;;;;;;31.06;36.78;98374.95;105865;1276;98489;-66
2022/05/24 09:24:58;;;;;;;4.40;2.10;;;;;;;31.18;36.77;98370.77;105971;1276;107417;-64
2022/05/24 09:27:28;;;;;;;3.20;1.90;;;;;;;31.34;36.30;98373.70;105899;1275;97951;-66
2022/05/24 09:30:35;;;;;;;2.50;1.40;;;;;;;31.14;35.64;98376.84;106080;1275;97935;-65
2022/05/24 09:33:24;;;;;;;2.60;2.00;;;;;;;30.81;34.82;98371.73;106123;1274;111174;-66
2022/05/24 09:35:58;;;;;;;3.60;2.20;;;;;;;30.27;34.75;98379.33;105975;1276;95691;-66
2022/05/24 09:38:38;;;;;;;3.90;2.10;;;;;;;29.46;33.56;98376.38;106056;1274;107740;-66
2022/05/24 09:41:15;;;;;;;6.70;2.20;;;;;;;28.77;34.58;98380.93;105960;1275;98102;-66
2022/05/24 09:44:01;;;;;;;2.30;1.90;;;;;;;28.91;35.20;98376.52;105976;1276;95221;-66
2022/05/24 09:46:30;;;;;;;3.50;2.00;;;;;;;29.06;34.59;98376.60;106075;1274;111316;-66
2022/05/24 09:49:24;;;;;;;4.10;2.30;;;;;;;29.04;34.15;98377.28;106072;1275;97867;-64
2022/05/24 09:51:57;;;;;;;3.60;1.90;;;;;;;28.95;34.72;98377.48;106061;1274;107762;-65
2022/05/24 09:54:28;;;;;;;6.10;2.20;;;;;;;29.09;34.66;98375.66;106060;1274;97899;-66
2022/05/24 09:57:10;;;;;;;6.40;2.20;;;;;;;29.04;34.66;98378.21;105926;1276;98627;-67
2022/05/24 09:59:42;;;;;;;4.60;2.10;;;;;;;29.06;34.53;98373.20;105994;1276;112514;-66
2022/05/24 10:02:31;;;;;;;6.30;2.20;;;;;;;28.85;34.85;98376.05;106023;1275;98361;-64
2022/05/24 10:05:03;;;;;;;4.70;2.10;;;;;;;28.63;34.47;98375.88;106058;1275;107747;-66
2022/05/24 10:07:39;;;;;;;6.80;2.10;;;;;;;28.35;34.29;98374.66;106075;1276;97985;-67
2022/05/24 10:10:22;;;;;;;2.90;2.10;;;;;;;27.89;33.80;98381.90;106007;1274;97996;-66
2022/05/24 10:12:53;;;;;;;3.20;2.20;;;;;;;27.49;34.37;98377.80;106022;1274;112023;-65
2022/05/24 10:16:05;;;;;;;3.80;2.00;;;;;;;27.28;33.66;98379.40;106150;1276;98366;-65
2022/05/24 10:18:46;;;;;;;4.10;2.20;;;;;;;26.88;34.06;98368.91;105587;1279;107822;-66
2022/05/24 10:21:25;;;;;;;4.70;2.20;;;;;;;26.66;33.89;98374.73;106012;1274;97857;-65
2022/05/24 10:24:10;;;;;;;5.20;2.50;;;;;;;26.28;33.58;98372.81;106081;1275;97858;-65
2022/05/24 10:26:56;;;;;;;4.80;2.30;;;;;;;26.01;33.60;98366.27;105946;1276;111854;-65
2022/05/24 10:29:37;;;;;;;2.80;1.90;;;;;;;25.80;33.72;98368.91;105955;1275;96347;-65
2022/05/24 12:58:54;;;;;;;2.70;2.10;;;;;;;22.33;35.02;98336.96;105967;1276;97848;-67
2022/05/24 13:01:30;;;;;;;3.20;2.00;;;;;;;22.21;34.98;98340.89;106074;1276;108281;-68
2022/05/24 13:04:05;;;;;;;6.10;2.50;;;;;;;22.11;34.88;98338.38;106094;1276;95397;-66
2022/05/24 13:06:39;;;;;;;5.70;2.10;;;;;;;22.12;35.29;98337.17;105949;1276;95243;-67
2022/05/24 13:09:16;;;;;;;10.60;3.20;;;;;;;22.17;35.40;98335.73;105868;1277;111575;-67
2022/05/24 13:12:08;;;;;;;3.90;2.20;;;;;;;22.25;35.33;98339.20;105947;1276;95338;-66
2022/05/24 13:15:07;;;;;;;8.40;2.60;;;;;;;22.33;35.52;98343.77;105965;1276;107847;-66
2022/05/24 13:17:44;;;;;;;8.30;2.70;;;;;;;22.42;35.48;98335.35;105958;1276;98023;-67
2022/05/24 13:20:18;;;;;;;7.70;2.40;;;;;;;22.46;35.54;98336.64;105949;1276;97993;-65
2022/05/24 13:22:55;;;;;;;6.00;2.50;;;;;;;22.50;35.62;98334.94;106081;1275;111475;-66
2022/05/24 13:25:57;;;;;;;5.70;2.30;;;;;;;22.51;35.39;98336.26;105994;1276;97984;-66
2022/05/24 13:28:39;;;;;;;6.60;2.30;;;;;;;22.51;35.69;98341.06;105919;1276;108356;-66
2022/05/24 13:34:27;;;;;;;;;;;;;;;22.53;35.48;98338.31;106021;1276;97906;-67
2022/05/24 13:36:59;;;;;;;6.20;2.30;;;;;;;22.45;35.48;98341.21;105912;1276;111990;-67
2022/05/24 13:39:53;;;;;;;4.70;2.40;;;;;;;22.50;35.61;98341.73;105981;1276;98460;-66
2022/05/24 13:42:25;;;;;;;5.30;2.10;;;;;;;22.58;35.88;98341.86;105895;1276;108443;-68
2022/05/24 13:45:26;;;;;;;5.80;2.20;;;;;;;22.64;36.08;98336.77;105946;1276;97805;-67
2022/05/24 13:48:00;;;;;;;6.60;2.80;;;;;;;22.70;35.73;98334.39;105971;1276;95389;-66
2022/05/24 13:50:37;;;;;;;5.00;2.90;;;;;;;22.66;35.87;98334.73;105911;1276;111002;-66
2022/05/24 13:53:07;;;;;;;8.50;2.40;;;;;;;22.60;35.86;98332.70;105878;1276;95217;-66
2022/05/24 13:55:52;;;;;;;6.20;2.20;;;;;;;22.52;35.55;98329.95;105692;1276;108093;-65
2022/05/24 13:58:26;;;;;;;7.90;2.60;;;;;;;22.42;35.98;98327.31;105870;1276;97986;-65
2022/05/24 14:01:52;;;;;;;2.80;2.20;;;;;;;22.41;35.84;98324.27;105966;1276;95301;-65
2022/05/24 14:04:23;;;;;;;10.20;2.40;;;;;;;22.40;35.88;98321.18;105288;1284;112038;-65
2022/05/24 14:07:00;;;;;;;3.80;1.70;;;;;;;22.46;36.10;98320.08;105884;1276;97882;-63
2022/05/24 14:09:31;;;;;;;5.40;2.80;;;;;;;22.52;36.01;98325.27;105978;1276;107777;-66
2022/05/24 14:12:04;;;;;;;6.40;2.80;;;;;;;22.54;35.95;98322.84;106049;1276;97958;-65
2022/05/24 14:14:39;;;;;;;6.70;2.50;;;;;;;22.55;36.19;98317.02;106099;1275;97876;-66
2022/05/24 14:17:08;;;;;;;11.80;2.90;;;;;;;22.56;36.15;98319.93;106000;1276;112026;-65
2022/05/24 14:19:37;;;;;;;6.40;2.60;;;;;;;22.53;36.43;98326.84;105975;1276;97719;-65
2022/05/24 14:22:07;;;;;;;8.30;2.70;;;;;;;22.48;36.33;98322.51;105908;1276;107713;-66
2022/05/24 14:24:43;;;;;;;6.40;2.80;;;;;;;22.44;36.35;98325.15;105922;1276;98063;-65
2022/05/24 14:27:13;;;;;;;6.20;2.60;;;;;;;22.45;36.44;98323.25;106003;1276;97839;-65
2022/05/24 14:29:41;;;;;;;7.00;3.20;;;;;;;22.44;36.40;98322.83;106021;1276;112530;-66
2022/05/24 14:32:11;;;;;;;7.20;2.70;;;;;;;22.43;36.58;98321.82;106080;1276;97890;-64
2022/05/24 14:34:40;;;;;;;9.20;2.40;;;;;;;22.44;36.54;98320.32;106000;1276;108443;-66
2022/05/24 14:37:08;;;;;;;6.90;3.20;;;;;;;22.43;36.62;98318.77;105959;1276;97959;-66
2022/05/24 14:39:39;;;;;;;6.10;2.80;;;;;;;22.44;36.68;98320.63;105934;1276;97890;-66
2022/05/24 14:42:08;;;;;;;6.50;2.60;;;;;;;22.42;36.71;98317.28;106052;1276;111422;-66
2022/05/24 14:44:37;;;;;;;5.10;2.50;;;;;;;22.36;36.55;98322.34;106050;1276;97979;-65
2022/05/24 14:47:06;;;;;;;9.10;3.00;;;;;;;22.31;36.60;98324.91;105954;1276;108398;-66
2022/05/24 14:49:35;;;;;;;4.90;2.70;;;;;;;22.29;36.83;98329.78;105976;1276;98064;-66